Nisshoumaru — JD3093 — position and weather

sailwx.info

Track history (hours):
 
Tides and Currents Weather Stations Pressure Air Temp Water Temp Dewpoint Dewpoint Depression Visibility Wind Speed Wind Dir Waves Ship Positions

Nisshoumaru

Last reported at 2016-Dec-02 08:06 UTC. Time now 2016-Dec-05 02:31 UTC.
Position N 35°06' E 139°45'.

Length 76 m; draft 4 m.

Type: Cargo ship. MMSI: 431001549.

Date/timePositionNaut miles runAvg speedWind from/ knotsBaromVisibWave heightAir tempDewpointWater temp
2016-Dec-02 08:06N 35°06' E 139°45'712.9
2016-Dec-02 07:32N 35°13' E 139°46'1111.7
2016-Dec-02 06:33N 35°24' E 139°43'7 1.2
2016-Dec-02 00:27N 35°21' E 139°51'0 0.0
2016-Dec-01 23:33N 35°21' E 139°51'0 0.0
2016-Dec-01 22:33N 35°21' E 139°51'0 0.0
2016-Dec-01 21:33N 35°21' E 139°51'0 0.0
2016-Dec-01 20:32N 35°21' E 139°51'2 0.4
2016-Dec-01 15:17N 35°22' E 139°53'0 0.0
2016-Dec-01 13:08N 35°22' E 139°53'0 0.0
2016-Dec-01 11:08N 35°22' E 139°53'3 4.3
2016-Dec-01 10:31N 35°24' E 139°51'3 3.4
2016-Dec-01 09:33N 35°25' E 139°48'6 5.8
2016-Dec-01 08:34N 35°25' E 139°41'0 0.0
2016-Dec-01 07:33N 35°25' E 139°41'0 0.0
2016-Dec-01 06:33N 35°25' E 139°41'0 0.0
2016-Dec-01 05:33N 35°25' E 139°41'0 0.0
2016-Dec-01 04:33N 35°25' E 139°41'0 0.0
2016-Dec-01 03:33N 35°25' E 139°41'0 0.0
2016-Dec-01 02:33N 35°25' E 139°41'0 0.0
2016-Dec-01 01:34N 35°25' E 139°41'0 0.0
2016-Dec-01 00:34N 35°25' E 139°41'0 0.0
2016-Nov-30 23:33N 35°25' E 139°41'1 1.0
2016-Nov-30 22:34N 35°25' E 139°42'0 0.0
2016-Nov-30 21:34N 35°25' E 139°42'0 0.0
2016-Nov-30 20:33N 35°25' E 139°42'0 0.0
2016-Nov-30 19:33N 35°25' E 139°42'0 0.0
2016-Nov-30 18:34N 35°25' E 139°42'0 0.0
2016-Nov-30 17:34N 35°25' E 139°42'0 0.0
2016-Nov-30 16:34N 35°25' E 139°42'0 0.0
2016-Nov-30 15:34N 35°26' E 139°42'0 0.0
2016-Nov-30 14:34N 35°25' E 139°42'0 0.0
2016-Nov-30 13:34N 35°25' E 139°42'0 0.0
2016-Nov-30 12:34N 35°25' E 139°42'0 0.0
2016-Nov-30 11:34N 35°25' E 139°42'10 9.5
2016-Nov-30 10:34N 35°17' E 139°46'  
2016-Nov-25 13:32N 35°13' E 139°46'1212.0
2016-Nov-25 12:34N 35°24' E 139°43'9 0.8
2016-Nov-25 01:24N 35°22' E 139°54'0 0.2
2016-Nov-24 23:34N 35°22' E 139°53'0 0.0
2016-Nov-24 22:30N 35°22' E 139°53'0 0.0
2016-Nov-24 21:33N 35°22' E 139°53'0 0.0
2016-Nov-24 20:32N 35°22' E 139°53'0 0.0
2016-Nov-24 11:31N 35°22' E 139°54'0 0.1
2016-Nov-24 09:17N 35°22' E 139°53'0 0.0
2016-Nov-24 08:25N 35°22' E 139°53'0 0.0
2016-Nov-24 07:18N 35°22' E 139°53'0 0.0
2016-Nov-24 06:27N 35°22' E 139°53'0 0.0
2016-Nov-24 03:24N 35°22' E 139°53'0 0.0
2016-Nov-24 02:24N 35°22' E 139°53'0 0.0
2016-Nov-24 01:11N 35°22' E 139°53'2 0.1
2016-Nov-23 08:33N 35°23' E 139°51'1212.3
2016-Nov-23 07:33N 35°35' E 139°51'4 3.6
2016-Nov-23 06:33N 35°37' E 139°48'0 0.1
2016-Nov-23 03:34N 35°38' E 139°48'0 0.0
2016-Nov-23 02:34N 35°38' E 139°48'0 0.0
2016-Nov-23 00:34N 35°38' E 139°48'0 0.0
2016-Nov-22 23:34N 35°38' E 139°48'0 0.0
2016-Nov-22 22:33N 35°38' E 139°48'0 0.0
2016-Nov-22 20:34N 35°38' E 139°48'0 0.0
2016-Nov-22 19:34N 35°38' E 139°48'0 0.0
2016-Nov-22 17:34N 35°38' E 139°48'0 0.0
2016-Nov-22 16:33N 35°38' E 139°48'0 0.0
2016-Nov-22 15:33N 35°38' E 139°48'0 0.0
2016-Nov-22 14:33N 35°38' E 139°48'0 0.0
2016-Nov-22 13:33N 35°38' E 139°48'0 0.0
2016-Nov-22 10:33N 35°38' E 139°48'0 0.0
2016-Nov-22 09:33N 35°38' E 139°48'0 0.0
2016-Nov-22 08:34N 35°38' E 139°48'  
Track history (hours):
 
Tides and Currents Weather Stations Pressure Air Temp Water Temp Dewpoint Dewpoint Depression Visibility Wind Speed Wind Dir Waves Ship Positions

Nisshoumaru

Last reported at 2016-Dec-02 08:06 UTC. Time now 2016-Dec-05 02:31 UTC.
Position N 35°06' E 139°45'.

Length 76 m; draft 4 m.

Type: Cargo ship. MMSI: 431001549.

Date/timePositionNaut miles runAvg speedWind from/ knotsBaromVisibWave heightAir tempDewpointWater temp
2016-Dec-02 08:06N 35°06' E 139°45'712.9
2016-Dec-02 07:32N 35°13' E 139°46'1111.7
2016-Dec-02 06:33N 35°24' E 139°43'7 1.2
2016-Dec-02 00:27N 35°21' E 139°51'0 0.0
2016-Dec-01 23:33N 35°21' E 139°51'0 0.0
2016-Dec-01 22:33N 35°21' E 139°51'0 0.0
2016-Dec-01 21:33N 35°21' E 139°51'0 0.0
2016-Dec-01 20:32N 35°21' E 139°51'2 0.4
2016-Dec-01 15:17N 35°22' E 139°53'0 0.0
2016-Dec-01 13:08N 35°22' E 139°53'0 0.0
2016-Dec-01 11:08N 35°22' E 139°53'3 4.3
2016-Dec-01 10:31N 35°24' E 139°51'3 3.4
2016-Dec-01 09:33N 35°25' E 139°48'6 5.8
2016-Dec-01 08:34N 35°25' E 139°41'0 0.0
2016-Dec-01 07:33N 35°25' E 139°41'0 0.0
2016-Dec-01 06:33N 35°25' E 139°41'0 0.0
2016-Dec-01 05:33N 35°25' E 139°41'0 0.0
2016-Dec-01 04:33N 35°25' E 139°41'0 0.0
2016-Dec-01 03:33N 35°25' E 139°41'0 0.0
2016-Dec-01 02:33N 35°25' E 139°41'0 0.0
2016-Dec-01 01:34N 35°25' E 139°41'0 0.0
2016-Dec-01 00:34N 35°25' E 139°41'0 0.0
2016-Nov-30 23:33N 35°25' E 139°41'1 1.0
2016-Nov-30 22:34N 35°25' E 139°42'0 0.0
2016-Nov-30 21:34N 35°25' E 139°42'0 0.0
2016-Nov-30 20:33N 35°25' E 139°42'0 0.0
2016-Nov-30 19:33N 35°25' E 139°42'0 0.0
2016-Nov-30 18:34N 35°25' E 139°42'0 0.0
2016-Nov-30 17:34N 35°25' E 139°42'0 0.0
2016-Nov-30 16:34N 35°25' E 139°42'0 0.0
2016-Nov-30 15:34N 35°26' E 139°42'0 0.0
2016-Nov-30 14:34N 35°25' E 139°42'0 0.0
2016-Nov-30 13:34N 35°25' E 139°42'0 0.0
2016-Nov-30 12:34N 35°25' E 139°42'0 0.0
2016-Nov-30 11:34N 35°25' E 139°42'10 9.5
2016-Nov-30 10:34N 35°17' E 139°46'  
2016-Nov-25 13:32N 35°13' E 139°46'1212.0
2016-Nov-25 12:34N 35°24' E 139°43'9 0.8
2016-Nov-25 01:24N 35°22' E 139°54'0 0.2
2016-Nov-24 23:34N 35°22' E 139°53'0 0.0
2016-Nov-24 22:30N 35°22' E 139°53'0 0.0
2016-Nov-24 21:33N 35°22' E 139°53'0 0.0
2016-Nov-24 20:32N 35°22' E 139°53'0 0.0
2016-Nov-24 11:31N 35°22' E 139°54'0 0.1
2016-Nov-24 09:17N 35°22' E 139°53'0 0.0
2016-Nov-24 08:25N 35°22' E 139°53'0 0.0
2016-Nov-24 07:18N 35°22' E 139°53'0 0.0
2016-Nov-24 06:27N 35°22' E 139°53'0 0.0
2016-Nov-24 03:24N 35°22' E 139°53'0 0.0
2016-Nov-24 02:24N 35°22' E 139°53'0 0.0
2016-Nov-24 01:11N 35°22' E 139°53'2 0.1
2016-Nov-23 08:33N 35°23' E 139°51'1212.3
2016-Nov-23 07:33N 35°35' E 139°51'4 3.6
2016-Nov-23 06:33N 35°37' E 139°48'0 0.1
2016-Nov-23 03:34N 35°38' E 139°48'0 0.0
2016-Nov-23 02:34N 35°38' E 139°48'0 0.0
2016-Nov-23 00:34N 35°38' E 139°48'0 0.0
2016-Nov-22 23:34N 35°38' E 139°48'0 0.0
2016-Nov-22 22:33N 35°38' E 139°48'0 0.0
2016-Nov-22 20:34N 35°38' E 139°48'0 0.0
2016-Nov-22 19:34N 35°38' E 139°48'0 0.0
2016-Nov-22 17:34N 35°38' E 139°48'0 0.0
2016-Nov-22 16:33N 35°38' E 139°48'0 0.0
2016-Nov-22 15:33N 35°38' E 139°48'0 0.0
2016-Nov-22 14:33N 35°38' E 139°48'0 0.0
2016-Nov-22 13:33N 35°38' E 139°48'0 0.0
2016-Nov-22 10:33N 35°38' E 139°48'0 0.0
2016-Nov-22 09:33N 35°38' E 139°48'0 0.0
2016-Nov-22 08:34N 35°38' E 139°48'  

Dump ship's entire track history